sensor_id;sensor_type;location;lat;lon;timestamp;pressure;altitude;pressure_sealevel;temperature;humidity
10712;BME280;5407;51.234;6.804;2022-07-10T00:01:39;102163.38;;;19.15;50.21
10712;BME280;5407;51.234;6.804;2022-07-10T00:04:06;102159.03;;;19.14;50.26
10712;BME280;5407;51.234;6.804;2022-07-10T00:06:32;102162.34;;;19.04;50.74
10712;BME280;5407;51.234;6.804;2022-07-10T00:09:00;102166.53;;;19.17;50.55
10712;BME280;5407;51.234;6.804;2022-07-10T00:11:27;102162.44;;;19.08;50.85
10712;BME280;5407;51.234;6.804;2022-07-10T00:13:54;102165.75;;;19.17;50.84
10712;BME280;5407;51.234;6.804;2022-07-10T00:16:20;102156.59;;;19.09;50.94
10712;BME280;5407;51.234;6.804;2022-07-10T00:18:47;102160.44;;;19.05;51.13
10712;BME280;5407;51.234;6.804;2022-07-10T00:21:13;102160.03;;;19.06;51.23
10712;BME280;5407;51.234;6.804;2022-07-10T00:23:41;102165.94;;;19.08;51.07
10712;BME280;5407;51.234;6.804;2022-07-10T00:26:09;102162.47;;;19.11;51.10
10712;BME280;5407;51.234;6.804;2022-07-10T00:28:36;102167.81;;;19.04;51.32
10712;BME280;5407;51.234;6.804;2022-07-10T00:31:03;102168.69;;;19.08;51.21
10712;BME280;5407;51.234;6.804;2022-07-10T00:33:29;102160.91;;;19.10;51.30
10712;BME280;5407;51.234;6.804;2022-07-10T00:35:57;102165.53;;;19.06;51.37
10712;BME280;5407;51.234;6.804;2022-07-10T00:38:24;102156.69;;;18.94;51.60
10712;BME280;5407;51.234;6.804;2022-07-10T00:40:51;102152.56;;;19.03;51.46
10712;BME280;5407;51.234;6.804;2022-07-10T00:43:19;102148.97;;;18.99;51.51
10712;BME280;5407;51.234;6.804;2022-07-10T00:45:45;102147.53;;;19.05;51.44
10712;BME280;5407;51.234;6.804;2022-07-10T00:48:12;102159.13;;;18.99;51.42
10712;BME280;5407;51.234;6.804;2022-07-10T00:50:39;102156.75;;;18.97;51.21
10712;BME280;5407;51.234;6.804;2022-07-10T00:53:06;102144.69;;;18.79;51.27
10712;BME280;5407;51.234;6.804;2022-07-10T00:55:34;102152.00;;;18.94;50.85
10712;BME280;5407;51.234;6.804;2022-07-10T00:58:01;102153.72;;;19.02;50.49
10712;BME280;5407;51.234;6.804;2022-07-10T01:00:29;102148.97;;;18.99;50.51
10712;BME280;5407;51.234;6.804;2022-07-10T01:02:56;102139.25;;;19.02;50.48
10712;BME280;5407;51.234;6.804;2022-07-10T01:05:23;102146.97;;;18.96;50.69
10712;BME280;5407;51.234;6.804;2022-07-10T01:07:49;102137.09;;;18.92;50.68
10712;BME280;5407;51.234;6.804;2022-07-10T01:10:16;102136.94;;;18.81;51.02
10712;BME280;5407;51.234;6.804;2022-07-10T01:12:43;102136.69;;;18.90;50.84
10712;BME280;5407;51.234;6.804;2022-07-10T01:15:10;102133.59;;;18.91;50.83
10712;BME280;5407;51.234;6.804;2022-07-10T01:17:38;102134.16;;;19.00;50.68
10712;BME280;5407;51.234;6.804;2022-07-10T01:20:05;102120.09;;;19.02;50.58
10712;BME280;5407;51.234;6.804;2022-07-10T01:22:34;102121.75;;;19.06;50.59
10712;BME280;5407;51.234;6.804;2022-07-10T01:25:02;102116.16;;;18.99;50.73
10712;BME280;5407;51.234;6.804;2022-07-10T01:27:28;102116.19;;;18.80;51.00
10712;BME280;5407;51.234;6.804;2022-07-10T01:29:55;102111.03;;;18.98;50.58
10712;BME280;5407;51.234;6.804;2022-07-10T01:32:22;102109.03;;;18.95;50.50
10712;BME280;5407;51.234;6.804;2022-07-10T01:34:48;102099.00;;;18.80;50.83
10712;BME280;5407;51.234;6.804;2022-07-10T01:37:15;102097.63;;;18.89;50.74
10712;BME280;5407;51.234;6.804;2022-07-10T01:39:43;102092.75;;;18.79;50.77
10712;BME280;5407;51.234;6.804;2022-07-10T01:42:09;102106.91;;;18.85;50.61
10712;BME280;5407;51.234;6.804;2022-07-10T01:44:36;102108.84;;;18.84;50.33
10712;BME280;5407;51.234;6.804;2022-07-10T01:47:03;102107.28;;;18.83;50.75
10712;BME280;5407;51.234;6.804;2022-07-10T01:49:30;102095.41;;;18.76;50.74
10712;BME280;5407;51.234;6.804;2022-07-10T01:51:58;102094.59;;;18.75;50.82
10712;BME280;5407;51.234;6.804;2022-07-10T01:54:25;102089.13;;;18.75;50.82
10712;BME280;5407;51.234;6.804;2022-07-10T01:56:53;102092.38;;;18.81;50.77
10712;BME280;5407;51.234;6.804;2022-07-10T01:59:20;102090.66;;;18.73;51.15
10712;BME280;5407;51.234;6.804;2022-07-10T02:01:46;102096.56;;;18.75;51.39
10712;BME280;5407;51.234;6.804;2022-07-10T02:04:13;102096.03;;;18.69;51.46
10712;BME280;5407;51.234;6.804;2022-07-10T02:06:57;102095.75;;;18.74;51.35
10712;BME280;5407;51.234;6.804;2022-07-10T02:09:23;102084.38;;;18.72;51.59
10712;BME280;5407;51.234;6.804;2022-07-10T02:11:50;102083.59;;;18.72;51.52
10712;BME280;5407;51.234;6.804;2022-07-10T02:14:18;102079.50;;;18.62;51.91
10712;BME280;5407;51.234;6.804;2022-07-10T02:16:45;102078.78;;;18.65;51.75
10712;BME280;5407;51.234;6.804;2022-07-10T02:19:11;102081.03;;;18.60;51.97
10712;BME280;5407;51.234;6.804;2022-07-10T02:21:38;102076.34;;;18.60;52.05
10712;BME280;5407;51.234;6.804;2022-07-10T02:24:05;102068.72;;;18.69;51.93
10712;BME280;5407;51.234;6.804;2022-07-10T02:26:31;102068.00;;;18.53;52.53
10712;BME280;5407;51.234;6.804;2022-07-10T02:28:58;102061.97;;;18.63;52.32
10712;BME280;5407;51.234;6.804;2022-07-10T02:31:26;102069.13;;;18.71;52.10
10712;BME280;5407;51.234;6.804;2022-07-10T02:33:52;102066.41;;;18.71;52.08
10712;BME280;5407;51.234;6.804;2022-07-10T02:36:19;102064.09;;;18.73;52.03
10712;BME280;5407;51.234;6.804;2022-07-10T02:38:46;102067.06;;;18.65;52.25
10712;BME280;5407;51.234;6.804;2022-07-10T02:41:12;102064.69;;;18.63;52.55
10712;BME280;5407;51.234;6.804;2022-07-10T02:43:39;102066.69;;;18.66;52.32
10712;BME280;5407;51.234;6.804;2022-07-10T02:46:06;102069.44;;;18.66;52.68
10712;BME280;5407;51.234;6.804;2022-07-10T02:48:34;102073.63;;;18.60;52.84
10712;BME280;5407;51.234;6.804;2022-07-10T02:51:00;102076.34;;;18.60;52.93
10712;BME280;5407;51.234;6.804;2022-07-10T02:53:27;102074.78;;;18.59;52.97
10712;BME280;5407;51.234;6.804;2022-07-10T02:55:54;102075.63;;;18.63;53.10
10712;BME280;5407;51.234;6.804;2022-07-10T02:58:20;102077.50;;;18.59;53.27
10712;BME280;5407;51.234;6.804;2022-07-10T03:00:47;102078.34;;;18.63;52.96
10712;BME280;5407;51.234;6.804;2022-07-10T03:03:13;102084.25;;;18.65;53.00
10712;BME280;5407;51.234;6.804;2022-07-10T03:05:44;102070.88;;;18.60;53.29
10712;BME280;5407;51.234;6.804;2022-07-10T03:08:10;102072.84;;;18.41;53.72
10712;BME280;5407;51.234;6.804;2022-07-10T03:10:37;102084.13;;;18.58;53.23
10712;BME280;5407;51.234;6.804;2022-07-10T03:13:04;102080.22;;;18.59;53.37
10712;BME280;5407;51.234;6.804;2022-07-10T03:15:30;102083.25;;;18.54;53.45
10712;BME280;5407;51.234;6.804;2022-07-10T03:17:57;102081.97;;;18.48;53.67
10712;BME280;5407;51.234;6.804;2022-07-10T03:20:24;102085.13;;;18.50;53.69
10712;BME280;5407;51.234;6.804;2022-07-10T03:22:52;102083.19;;;18.51;53.74
10712;BME280;5407;51.234;6.804;2022-07-10T03:25:18;102084.56;;;18.41;53.93
10712;BME280;5407;51.234;6.804;2022-07-10T03:27:45;102089.38;;;18.48;53.74
10712;BME280;5407;51.234;6.804;2022-07-10T03:30:12;102090.16;;;18.48;53.83
10712;BME280;5407;51.234;6.804;2022-07-10T03:32:38;102085.13;;;18.31;54.09
10712;BME280;5407;51.234;6.804;2022-07-10T03:35:05;102087.78;;;18.47;53.92
10712;BME280;5407;51.234;6.804;2022-07-10T03:37:32;102087.78;;;18.47;53.65
10712;BME280;5407;51.234;6.804;2022-07-10T03:40:00;102085.44;;;18.45;53.74
10712;BME280;5407;51.234;6.804;2022-07-10T03:42:26;102074.78;;;18.40;53.89
10712;BME280;5407;51.234;6.804;2022-07-10T03:44:53;102073.13;;;18.36;54.05
10712;BME280;5407;51.234;6.804;2022-07-10T03:47:20;102077.38;;;18.33;54.26
10712;BME280;5407;51.234;6.804;2022-07-10T03:49:46;102075.72;;;18.29;54.37
10712;BME280;5407;51.234;6.804;2022-07-10T03:52:13;102084.88;;;18.36;54.08
10712;BME280;5407;51.234;6.804;2022-07-10T03:54:40;102090.16;;;18.29;54.32
10712;BME280;5407;51.234;6.804;2022-07-10T03:57:08;102083.28;;;18.35;54.26
10712;BME280;5407;51.234;6.804;2022-07-10T03:59:52;102085.59;;;18.33;54.41
10712;BME280;5407;51.234;6.804;2022-07-10T04:02:19;102078.06;;;18.30;54.52
10712;BME280;5407;51.234;6.804;2022-07-10T04:04:45;102072.63;;;18.30;54.69
10712;BME280;5407;51.234;6.804;2022-07-10T04:07:12;102070.25;;;18.29;54.68
10712;BME280;5407;51.234;6.804;2022-07-10T04:09:39;102069.44;;;18.28;54.86
10712;BME280;5407;51.234;6.804;2022-07-10T04:12:05;102074.03;;;18.24;55.08
10712;BME280;5407;51.234;6.804;2022-07-10T04:14:34;102070.50;;;18.24;55.16
10712;BME280;5407;51.234;6.804;2022-07-10T04:17:00;102071.66;;;18.23;55.16
10712;BME280;5407;51.234;6.804;2022-07-10T04:19:27;102070.84;;;18.22;55.25
10712;BME280;5407;51.234;6.804;2022-07-10T04:21:53;102071.75;;;18.26;55.23
10712;BME280;5407;51.234;6.804;2022-07-10T04:24:20;102072.56;;;18.27;55.38
10712;BME280;5407;51.234;6.804;2022-07-10T04:26:47;102083.38;;;18.23;55.62
10712;BME280;5407;51.234;6.804;2022-07-10T04:29:13;102074.47;;;18.26;55.41
10712;BME280;5407;51.234;6.804;2022-07-10T04:31:41;102088.13;;;18.26;55.57
10712;BME280;5407;51.234;6.804;2022-07-10T04:34:08;102084.94;;;18.24;55.80
10712;BME280;5407;51.234;6.804;2022-07-10T04:36:35;102094.41;;;18.27;55.89
10712;BME280;5407;51.234;6.804;2022-07-10T04:39:01;102095.19;;;18.27;55.95
10712;BME280;5407;51.234;6.804;2022-07-10T04:41:28;102089.72;;;18.27;55.94
10712;BME280;5407;51.234;6.804;2022-07-10T04:43:54;102092.44;;;18.27;56.19
10712;BME280;5407;51.234;6.804;2022-07-10T04:46:21;102090.16;;;18.29;56.04
10712;BME280;5407;51.234;6.804;2022-07-10T04:48:49;102089.72;;;18.27;56.37
10712;BME280;5407;51.234;6.804;2022-07-10T04:51:16;102088.06;;;18.23;56.28
10712;BME280;5407;51.234;6.804;2022-07-10T04:53:43;102081.78;;;18.22;56.37
10712;BME280;5407;51.234;6.804;2022-07-10T04:56:10;102088.25;;;18.14;56.79
10712;BME280;5407;51.234;6.804;2022-07-10T04:58:36;102078.91;;;18.15;56.82
10712;BME280;5407;51.234;6.804;2022-07-10T05:01:03;102088.41;;;18.21;56.75
10712;BME280;5407;51.234;6.804;2022-07-10T05:03:30;102079.94;;;18.26;56.77
10712;BME280;5407;51.234;6.804;2022-07-10T05:05:58;102087.41;;;18.29;56.57
10712;BME280;5407;51.234;6.804;2022-07-10T05:08:24;102083.47;;;18.27;56.65
10712;BME280;5407;51.234;6.804;2022-07-10T05:10:51;102084.69;;;18.29;56.50
10712;BME280;5407;51.234;6.804;2022-07-10T05:13:17;102087.84;;;18.31;56.67
10712;BME280;5407;51.234;6.804;2022-07-10T05:15:45;102098.44;;;18.33;56.38
10712;BME280;5407;51.234;6.804;2022-07-10T05:18:11;102086.78;;;18.36;56.51
10712;BME280;5407;51.234;6.804;2022-07-10T05:20:38;102088.13;;;18.26;56.80
10712;BME280;5407;51.234;6.804;2022-07-10T05:23:09;102089.91;;;18.34;56.67
10712;BME280;5407;51.234;6.804;2022-07-10T05:25:36;102085.34;;;18.42;56.26
10712;BME280;5407;51.234;6.804;2022-07-10T05:28:03;102087.88;;;18.50;56.09
10712;BME280;5407;51.234;6.804;2022-07-10T05:30:30;102088.59;;;18.47;56.52
10712;BME280;5407;51.234;6.804;2022-07-10T05:32:57;102086.84;;;18.58;56.47
10712;BME280;5407;51.234;6.804;2022-07-10T05:35:23;102094.03;;;18.66;56.26
10712;BME280;5407;51.234;6.804;2022-07-10T05:37:50;102097.63;;;18.70;56.29
10712;BME280;5407;51.234;6.804;2022-07-10T05:40:18;102095.41;;;18.76;56.10
10712;BME280;5407;51.234;6.804;2022-07-10T05:42:45;102097.41;;;18.79;56.03
10712;BME280;5407;51.234;6.804;2022-07-10T05:45:11;102104.09;;;18.81;55.98
10712;BME280;5407;51.234;6.804;2022-07-10T05:47:38;102095.03;;;18.77;56.11
10712;BME280;5407;51.234;6.804;2022-07-10T05:50:05;102105.69;;;18.82;55.88
10712;BME280;5407;51.234;6.804;2022-07-10T05:52:32;102104.81;;;18.78;55.71
10712;BME280;5407;51.234;6.804;2022-07-10T05:54:59;102110.44;;;18.85;55.48
10712;BME280;5407;51.234;6.804;2022-07-10T05:57:29;102105.75;;;18.86;55.65
10712;BME280;5407;51.234;6.804;2022-07-10T05:59:56;102107.03;;;18.92;55.39
10712;BME280;5407;51.234;6.804;2022-07-10T06:02:23;102111.72;;;18.91;55.48
10712;BME280;5407;51.234;6.804;2022-07-10T06:04:50;102108.97;;;18.91;55.38
10712;BME280;5407;51.234;6.804;2022-07-10T06:07:16;102108.59;;;18.93;55.35
10712;BME280;5407;51.234;6.804;2022-07-10T06:09:43;102107.84;;;18.73;55.74
10712;BME280;5407;51.234;6.804;2022-07-10T06:12:10;102101.38;;;18.81;55.64
10712;BME280;5407;51.234;6.804;2022-07-10T06:14:38;102099.94;;;18.87;55.26
10712;BME280;5407;51.234;6.804;2022-07-10T06:17:05;102100.47;;;18.96;55.05
10712;BME280;5407;51.234;6.804;2022-07-10T06:19:31;102098.91;;;18.95;54.62
10712;BME280;5407;51.234;6.804;2022-07-10T06:21:58;102101.06;;;18.86;55.13
10712;BME280;5407;51.234;6.804;2022-07-10T06:24:42;102104.97;;;18.85;55.21
10712;BME280;5407;51.234;6.804;2022-07-10T06:27:09;102107.31;;;18.87;55.26
10712;BME280;5407;51.234;6.804;2022-07-10T06:29:37;102103.69;;;18.60;55.85
10712;BME280;5407;51.234;6.804;2022-07-10T06:32:04;102112.44;;;18.88;55.45
10712;BME280;5407;51.234;6.804;2022-07-10T06:34:32;102106.41;;;18.79;55.81
10712;BME280;5407;51.234;6.804;2022-07-10T06:36:58;102111.16;;;18.82;55.58
10712;BME280;5407;51.234;6.804;2022-07-10T06:39:25;102116.75;;;18.89;55.55
10712;BME280;5407;51.234;6.804;2022-07-10T06:41:52;102108.97;;;18.91;55.71
10712;BME280;5407;51.234;6.804;2022-07-10T06:44:19;102109.88;;;18.99;55.42
10712;BME280;5407;51.234;6.804;2022-07-10T06:46:48;102106.06;;;19.03;55.54
10712;BME280;5407;51.234;6.804;2022-07-10T06:49:29;102108.44;;;19.05;55.40
10712;BME280;5407;51.234;6.804;2022-07-10T06:51:55;102095.47;;;19.02;55.50
10712;BME280;5407;51.234;6.804;2022-07-10T06:54:22;102103.03;;;19.08;55.02
10712;BME280;5407;51.234;6.804;2022-07-10T06:56:48;102112.28;;;19.00;55.27
10712;BME280;5407;51.234;6.804;2022-07-10T06:59:15;102116.66;;;19.05;55.10
10712;BME280;5407;51.234;6.804;2022-07-10T07:01:42;102111.97;;;19.05;55.04
10712;BME280;5407;51.234;6.804;2022-07-10T07:04:10;102117.88;;;19.07;55.02
10712;BME280;5407;51.234;6.804;2022-07-10T07:06:37;102116.28;;;19.06;55.13
10712;BME280;5407;51.234;6.804;2022-07-10T07:09:03;102113.66;;;19.13;54.76
10712;BME280;5407;51.234;6.804;2022-07-10T07:11:30;102114.63;;;19.02;55.08
10712;BME280;5407;51.234;6.804;2022-07-10T07:13:56;102120.69;;;18.92;55.15
10712;BME280;5407;51.234;6.804;2022-07-10T07:16:23;102115.56;;;19.09;55.10
10712;BME280;5407;51.234;6.804;2022-07-10T07:19:03;102116.03;;;18.92;55.34
10712;BME280;5407;51.234;6.804;2022-07-10T07:21:31;102113.13;;;19.04;55.15
10712;BME280;5407;51.234;6.804;2022-07-10T07:24:15;102107.34;;;19.09;54.96
10712;BME280;5407;51.234;6.804;2022-07-10T07:26:43;102107.66;;;19.04;55.08
10712;BME280;5407;51.234;6.804;2022-07-10T07:29:12;102114.41;;;19.10;54.61
10712;BME280;5407;51.234;6.804;2022-07-10T07:31:39;102121.88;;;19.13;54.37
10712;BME280;5407;51.234;6.804;2022-07-10T07:34:06;102127.94;;;19.03;54.22
10712;BME280;5407;51.234;6.804;2022-07-10T07:36:34;102126.78;;;19.04;54.06
10712;BME280;5407;51.234;6.804;2022-07-10T07:39:00;102133.50;;;19.07;53.72
10712;BME280;5407;51.234;6.804;2022-07-10T07:41:27;102124.50;;;19.06;53.59
10712;BME280;5407;51.234;6.804;2022-07-10T07:43:54;102130.00;;;18.87;54.23
10712;BME280;5407;51.234;6.804;2022-07-10T07:46:20;102127.53;;;19.01;54.13
10712;BME280;5407;51.234;6.804;2022-07-10T07:48:47;102136.31;;;18.91;54.90
10712;BME280;5407;51.234;6.804;2022-07-10T07:51:15;102137.19;;;18.95;55.42
10712;BME280;5407;51.234;6.804;2022-07-10T07:53:43;102137.19;;;18.95;55.68
10712;BME280;5407;51.234;6.804;2022-07-10T07:56:09;102132.44;;;18.73;56.76
10712;BME280;5407;51.234;6.804;2022-07-10T07:58:36;102135.34;;;18.80;56.72
10712;BME280;5407;51.234;6.804;2022-07-10T08:01:03;102132.16;;;18.78;56.73
10712;BME280;5407;51.234;6.804;2022-07-10T08:03:29;102134.63;;;18.83;56.83
10712;BME280;5407;51.234;6.804;2022-07-10T08:05:56;102139.06;;;18.72;57.33
10712;BME280;5407;51.234;6.804;2022-07-10T08:08:23;102143.81;;;18.75;57.39
10712;BME280;5407;51.234;6.804;2022-07-10T08:10:51;102135.34;;;18.61;57.96
10712;BME280;5407;51.234;6.804;2022-07-10T08:13:17;102135.19;;;18.73;57.77
10712;BME280;5407;51.234;6.804;2022-07-10T08:15:44;102136.50;;;18.79;57.95
10712;BME280;5407;51.234;6.804;2022-07-10T08:18:10;102138.34;;;18.75;58.28
10712;BME280;5407;51.234;6.804;2022-07-10T08:20:37;102139.22;;;18.79;58.11
10712;BME280;5407;51.234;6.804;2022-07-10T08:23:04;102136.94;;;18.81;58.04
10712;BME280;5407;51.234;6.804;2022-07-10T08:25:30;102135.03;;;18.66;58.63
10712;BME280;5407;51.234;6.804;2022-07-10T08:28:01;102141.25;;;18.82;58.43
10712;BME280;5407;51.234;6.804;2022-07-10T08:30:28;102138.63;;;18.89;58.55
10712;BME280;5407;51.234;6.804;2022-07-10T08:32:55;102135.91;;;18.89;59.54
10712;BME280;5407;51.234;6.804;2022-07-10T08:35:22;102138.22;;;18.87;59.95
10712;BME280;5407;51.234;6.804;2022-07-10T08:37:48;102131.50;;;18.85;60.16
10712;BME280;5407;51.234;6.804;2022-07-10T08:40:16;102130.94;;;18.76;60.79
10712;BME280;5407;51.234;6.804;2022-07-10T08:42:44;102134.31;;;18.69;61.44
10712;BME280;5407;51.234;6.804;2022-07-10T08:45:12;102136.41;;;18.76;61.67
10712;BME280;5407;51.234;6.804;2022-07-10T08:47:39;102133.75;;;18.79;61.88
10712;BME280;5407;51.234;6.804;2022-07-10T08:50:14;102133.69;;;18.76;61.92
10712;BME280;5407;51.234;6.804;2022-07-10T08:52:43;102133.09;;;18.86;62.03
10712;BME280;5407;51.234;6.804;2022-07-10T08:55:12;102130.78;;;18.88;61.54
10712;BME280;5407;51.234;6.804;2022-07-10T08:57:39;102127.69;;;18.89;61.65
10712;BME280;5407;51.234;6.804;2022-07-10T09:00:08;102134.31;;;18.88;62.11
10712;BME280;5407;51.234;6.804;2022-07-10T09:02:36;102132.66;;;19.03;61.53
10712;BME280;5407;51.234;6.804;2022-07-10T09:05:03;102128.81;;;19.07;61.46
10712;BME280;5407;51.234;6.804;2022-07-10T09:07:34;102124.06;;;19.04;61.41
10712;BME280;5407;51.234;6.804;2022-07-10T09:10:04;102124.47;;;19.25;60.89
10712;BME280;5407;51.234;6.804;2022-07-10T09:12:34;102121.38;;;19.26;60.51
10712;BME280;5407;51.234;6.804;2022-07-10T09:15:14;102119.13;;;19.32;60.37
10712;BME280;5407;51.234;6.804;2022-07-10T09:17:50;102117.41;;;19.24;60.40
10712;BME280;5407;51.234;6.804;2022-07-10T09:20:23;102115.16;;;19.29;60.56
10712;BME280;5407;51.234;6.804;2022-07-10T09:22:50;102116.09;;;19.37;60.56
10712;BME280;5407;51.234;6.804;2022-07-10T09:25:17;102116.00;;;19.33;60.79
10712;BME280;5407;51.234;6.804;2022-07-10T09:27:50;102120.94;;;19.47;60.37
10712;BME280;5407;51.234;6.804;2022-07-10T09:30:22;102117.22;;;19.58;59.90
10712;BME280;5407;51.234;6.804;2022-07-10T09:35:40;102117.03;;;19.70;58.99
10712;BME280;5407;51.234;6.804;2022-07-10T09:38:50;102115.75;;;19.64;58.41
10712;BME280;5407;51.234;6.804;2022-07-10T09:41:20;102117.25;;;19.62;58.40
10712;BME280;5407;51.234;6.804;2022-07-10T09:43:47;102116.41;;;19.58;58.37
10712;BME280;5407;51.234;6.804;2022-07-10T09:46:14;102114.09;;;19.60;58.43
10712;BME280;5407;51.234;6.804;2022-07-10T09:48:41;102121.97;;;19.61;58.58
10712;BME280;5407;51.234;6.804;2022-07-10T09:51:09;102114.94;;;19.64;58.71
10712;BME280;5407;51.234;6.804;2022-07-10T09:53:37;102114.91;;;19.60;59.18
10712;BME280;5407;51.234;6.804;2022-07-10T09:56:06;102113.38;;;19.63;58.83
10712;BME280;5407;51.234;6.804;2022-07-10T09:58:33;102111.53;;;19.70;59.11
10712;BME280;5407;51.234;6.804;2022-07-10T10:01:02;102112.03;;;19.76;59.06
10712;BME280;5407;51.234;6.804;2022-07-10T10:03:30;102104.38;;;19.88;58.87
10712;BME280;5407;51.234;6.804;2022-07-10T10:06:01;102106.00;;;19.93;58.78
10712;BME280;5407;51.234;6.804;2022-07-10T10:08:30;102099.38;;;19.94;58.81
10712;BME280;5407;51.234;6.804;2022-07-10T10:10:58;102094.31;;;19.96;58.96
10712;BME280;5407;51.234;6.804;2022-07-10T10:13:26;102100.22;;;19.98;58.91
10712;BME280;5407;51.234;6.804;2022-07-10T10:15:53;102095.69;;;19.83;59.81
10712;BME280;5407;51.234;6.804;2022-07-10T10:18:20;102098.59;;;19.67;60.84
10712;BME280;5407;51.234;6.804;2022-07-10T10:20:48;102104.47;;;19.69;61.48
10712;BME280;5407;51.234;6.804;2022-07-10T10:23:14;102094.41;;;19.51;62.67
10712;BME280;5407;51.234;6.804;2022-07-10T10:25:43;102094.75;;;19.72;62.35
10712;BME280;5407;51.234;6.804;2022-07-10T10:28:11;102089.69;;;19.74;62.49
10712;BME280;5407;51.234;6.804;2022-07-10T10:30:39;102090.25;;;19.86;62.07
10712;BME280;5407;51.234;6.804;2022-07-10T10:35:47;102081.91;;;20.02;60.88
10712;BME280;5407;51.234;6.804;2022-07-10T10:38:14;102082.06;;;20.12;60.16
10712;BME280;5407;51.234;6.804;2022-07-10T10:40:41;102082.41;;;20.11;59.92
10712;BME280;5407;51.234;6.804;2022-07-10T10:43:19;102079.25;;;20.09;60.56
10712;BME280;5407;51.234;6.804;2022-07-10T10:45:46;102075.13;;;19.96;61.46
10712;BME280;5407;51.234;6.804;2022-07-10T10:48:13;102085.44;;;20.02;61.87
10712;BME280;5407;51.234;6.804;2022-07-10T10:50:41;102076.06;;;20.03;62.30
10712;BME280;5407;51.234;6.804;2022-07-10T10:53:14;102074.94;;;20.08;62.39
10712;BME280;5407;51.234;6.804;2022-07-10T10:55:41;102069.78;;;20.03;62.51
10712;BME280;5407;51.234;6.804;2022-07-10T10:58:38;102072.28;;;20.15;62.46
10712;BME280;5407;51.234;6.804;2022-07-10T11:01:05;102067.22;;;20.17;60.95
10712;BME280;5407;51.234;6.804;2022-07-10T11:03:32;102069.84;;;20.06;60.53
10712;BME280;5407;51.234;6.804;2022-07-10T11:05:58;102064.78;;;20.08;60.20
10712;BME280;5407;51.234;6.804;2022-07-10T11:08:37;102061.66;;;20.10;59.71
10712;BME280;5407;51.234;6.804;2022-07-10T11:13:51;102057.72;;;20.07;59.92
10712;BME280;5407;51.234;6.804;2022-07-10T11:16:23;102061.31;;;20.15;59.59
10712;BME280;5407;51.234;6.804;2022-07-10T11:18:51;102054.69;;;20.16;59.78
10712;BME280;5407;51.234;6.804;2022-07-10T11:21:21;102056.66;;;20.15;59.84
10712;BME280;5407;51.234;6.804;2022-07-10T11:23:51;102063.22;;;20.11;60.14
10712;BME280;5407;51.234;6.804;2022-07-10T11:26:24;102059.28;;;20.08;60.07
10712;BME280;5407;51.234;6.804;2022-07-10T11:28:54;102054.25;;;20.14;60.22
10712;BME280;5407;51.234;6.804;2022-07-10T11:31:21;102061.22;;;20.08;60.51
10712;BME280;5407;51.234;6.804;2022-07-10T11:33:48;102063.66;;;19.87;61.99
10712;BME280;5407;51.234;6.804;2022-07-10T11:36:17;102062.72;;;19.76;63.65
10712;BME280;5407;51.234;6.804;2022-07-10T11:38:44;102056.63;;;19.86;64.56
10712;BME280;5407;51.234;6.804;2022-07-10T11:41:14;102059.78;;;19.88;64.54
10712;BME280;5407;51.234;6.804;2022-07-10T11:43:48;102057.38;;;19.86;65.02
10712;BME280;5407;51.234;6.804;2022-07-10T11:46:16;102052.00;;;19.93;65.34
10712;BME280;5407;51.234;6.804;2022-07-10T11:48:44;102046.59;;;19.97;65.63
10712;BME280;5407;51.234;6.804;2022-07-10T11:51:17;102049.44;;;20.04;65.43
10712;BME280;5407;51.234;6.804;2022-07-10T11:53:52;102051.53;;;20.14;65.68
10712;BME280;5407;51.234;6.804;2022-07-10T11:56:18;102033.63;;;20.20;64.76
10712;BME280;5407;51.234;6.804;2022-07-10T11:58:52;102044.19;;;20.21;64.63
10712;BME280;5407;51.234;6.804;2022-07-10T12:01:20;102038.38;;;20.26;64.24
10712;BME280;5407;51.234;6.804;2022-07-10T12:03:53;102037.69;;;20.33;64.29
10712;BME280;5407;51.234;6.804;2022-07-10T12:06:20;102040.66;;;20.21;64.54
10712;BME280;5407;51.234;6.804;2022-07-10T12:08:47;102029.88;;;20.35;63.73
10712;BME280;5407;51.234;6.804;2022-07-10T12:11:14;102045.50;;;20.34;62.53
10712;BME280;5407;51.234;6.804;2022-07-10T12:13:41;102041.59;;;20.32;61.68
10712;BME280;5407;51.234;6.804;2022-07-10T12:16:08;102044.69;;;20.30;61.65
10712;BME280;5407;51.234;6.804;2022-07-10T12:18:36;102050.88;;;20.24;61.18
10712;BME280;5407;51.234;6.804;2022-07-10T12:21:03;102054.38;;;20.21;61.41
10712;BME280;5407;51.234;6.804;2022-07-10T12:23:30;102050.09;;;20.23;61.51
10712;BME280;5407;51.234;6.804;2022-07-10T12:25:58;102058.63;;;20.18;61.99
10712;BME280;5407;51.234;6.804;2022-07-10T12:28:24;102056.69;;;20.19;62.28
10712;BME280;5407;51.234;6.804;2022-07-10T12:30:51;102060.16;;;20.16;62.52
10712;BME280;5407;51.234;6.804;2022-07-10T12:33:19;102060.97;;;20.16;62.05
10712;BME280;5407;51.234;6.804;2022-07-10T12:35:48;102064.38;;;20.10;62.20
10712;BME280;5407;51.234;6.804;2022-07-10T12:38:16;102066.38;;;20.13;62.50
10712;BME280;5407;51.234;6.804;2022-07-10T12:40:44;102064.72;;;20.05;63.25
10712;BME280;5407;51.234;6.804;2022-07-10T12:43:10;102059.97;;;20.02;63.71
10712;BME280;5407;51.234;6.804;2022-07-10T12:45:37;102057.25;;;20.02;63.96
10712;BME280;5407;51.234;6.804;2022-07-10T12:48:04;102050.59;;;20.03;63.97
10712;BME280;5407;51.234;6.804;2022-07-10T12:50:32;102054.50;;;20.02;63.72
10712;BME280;5407;51.234;6.804;2022-07-10T12:53:09;102053.44;;;20.10;63.97
10712;BME280;5407;51.234;6.804;2022-07-10T12:55:37;102052.25;;;20.11;63.97
10712;BME280;5407;51.234;6.804;2022-07-10T12:58:04;102046.22;;;20.28;63.58
10712;BME280;5407;51.234;6.804;2022-07-10T13:00:34;102050.41;;;20.51;63.33
10712;BME280;5407;51.234;6.804;2022-07-10T13:03:02;102039.13;;;20.92;62.97
10712;BME280;5407;51.234;6.804;2022-07-10T13:05:30;102037.06;;;21.29;62.13
10712;BME280;5407;51.234;6.804;2022-07-10T13:08:06;102038.94;;;21.65;60.13
10712;BME280;5407;51.234;6.804;2022-07-10T13:10:36;102034.81;;;22.03;59.32
10712;BME280;5407;51.234;6.804;2022-07-10T13:13:03;102034.50;;;22.25;58.03